Goldengate, Illinois
Current Conditions -  °F | °C
As of 2:55 PM on Tuesday 21 Oct 2014 (Local Time) from KFWC Reporting Station
Scattered Clouds Scattered Clouds  
Wind Chill: 64°   Ceiling: Unl
Heat Index: 64°   Visibility: 10mi
Dew Point: 43°   Wind: 9mph
Humidity: 47%   Direction: 20°NNE
Pressure: 30.09"   Gusts: NA
Location:  38.361°N, 88.2031°W
Report Text: KFWC 211955Z AUTO 02008KT 10SM SCT046 18/06 A3009 RMK AO1 T01790063
Loading
Personal Weather Stations






























Interactive Weather Map
Tropical Storm Tracking
New forecast layout! Learn more

10-Day Weather Forecast

Advertisements
Track Severe Weather on mobile